Time;durP1;ratioP1;P1;durP2;ratioP2;P2;SDS_P1;SDS_P2;PMS_P1;PMS_P2;Temp;Humidity;BMP_temperature;BMP_pressure;BME280_temperature;BME280_humidity;BME280_pressure;Samples;Min_cycle;Max_cycle;Signal;HPM_P1;HPM_P2
2024/02/27 00:01:52;;;;;;;0.30;0.30;;;8.00;99.90;;;;;;5059623;28;20395;-81
2024/02/27 00:04:18;;;;;;;0.40;0.40;;;8.00;99.90;;;;;;5064258;28;20086;-81
2024/02/27 00:06:44;;;;;;;0.77;0.30;;;8.00;99.90;;;;;;5060827;28;20033;-81
2024/02/27 00:09:14;;;;;;;0.70;0.60;;;8.00;99.90;;;;;;5061203;28;20478;-80
2024/02/27 00:11:41;;;;;;;0.30;0.30;;;8.10;99.90;;;;;;5058633;28;20108;-80
2024/02/27 00:14:07;;;;;;;0.40;0.40;;;8.10;99.90;;;;;;5059980;28;20024;-81
2024/02/27 00:16:32;;;;;;;0.28;0.28;;;8.20;99.90;;;;;;5059786;28;20387;-81
2024/02/27 00:18:58;;;;;;;0.30;0.30;;;8.10;99.90;;;;;;5065244;28;20478;-81
2024/02/27 00:21:24;;;;;;;0.60;0.20;;;8.10;99.90;;;;;;5057860;28;20050;-81
2024/02/27 00:23:49;;;;;;;0.30;0.30;;;8.30;99.90;;;;;;5060816;28;20025;-81
2024/02/27 00:26:15;;;;;;;0.50;0.20;;;8.40;99.90;;;;;;5060325;28;20029;-81
2024/02/27 00:28:41;;;;;;;0.43;0.43;;;8.40;99.90;;;;;;5061468;28;20478;-81
2024/02/27 00:31:09;;;;;;;0.75;0.30;;;8.50;99.90;;;;;;5061797;28;20073;-81
2024/02/27 00:33:35;;;;;;;0.40;0.40;;;8.40;99.90;;;;;;5059553;28;20115;-81
2024/02/27 00:36:01;;;;;;;0.20;0.20;;;8.50;99.90;;;;;;5063875;28;20423;-81
2024/02/27 00:38:27;;;;;;;0.22;0.22;;;8.40;99.90;;;;;;5059810;28;20087;-81
2024/02/27 00:40:53;;;;;;;0.47;0.20;;;8.40;99.90;;;;;;5061165;28;20024;-81
2024/02/27 00:43:18;;;;;;;0.40;0.40;;;8.40;99.90;;;;;;5061646;28;20398;-81
2024/02/27 00:45:44;;;;;;;0.32;0.32;;;8.40;99.90;;;;;;5059447;28;20319;-81
2024/02/27 00:48:10;;;;;;;0.30;0.30;;;8.30;99.90;;;;;;5069126;28;20025;-81
2024/02/27 00:50:36;;;;;;;0.30;0.28;;;8.40;99.90;;;;;;5059566;28;20029;-81
2024/02/27 00:53:01;;;;;;;2.05;0.30;;;8.40;99.90;;;;;;5061129;28;20020;-81
2024/02/27 00:55:27;;;;;;;0.30;0.30;;;8.30;99.90;;;;;;5060867;28;20116;-81
2024/02/27 00:57:52;;;;;;;0.40;0.30;;;8.20;99.90;;;;;;5059998;28;20013;-81
2024/02/27 01:00:18;;;;;;;0.30;0.30;;;8.20;99.90;;;;;;5063460;28;20107;-81
2024/02/27 01:02:44;;;;;;;0.85;0.50;;;8.10;99.90;;;;;;5059006;28;20471;-81
2024/02/27 01:05:10;;;;;;;0.40;0.40;;;8.10;99.90;;;;;;5064448;28;20024;-81
2024/02/27 01:07:36;;;;;;;0.20;0.20;;;8.10;99.90;;;;;;5060611;28;20023;-81
2024/02/27 01:10:06;;;;;;;0.45;0.45;;;8.10;99.90;;;;;;5062135;28;20021;-81
2024/02/27 01:12:32;;;;;;;0.30;0.30;;;8.10;99.90;;;;;;5062232;28;20111;-81
2024/02/27 01:14:58;;;;;;;0.35;0.32;;;8.10;99.90;;;;;;5061713;28;20127;-81
2024/02/27 01:17:24;;;;;;;0.30;0.30;;;8.10;99.90;;;;;;5060754;28;20039;-81
2024/02/27 01:19:49;;;;;;;0.20;0.20;;;8.20;99.90;;;;;;5070260;28;20036;-81
2024/02/27 01:22:29;;;;;;;0.28;0.28;;;8.30;99.90;;;;;;5061992;28;20500;-81
2024/02/27 01:24:55;;;;;;;0.32;0.30;;;8.40;99.90;;;;;;5061047;28;20035;-82
2024/02/27 01:27:21;;;;;;;0.20;0.20;;;8.50;99.90;;;;;;5059803;28;20074;-81
2024/02/27 01:29:47;;;;;;;1.13;0.60;;;8.50;99.90;;;;;;5061171;28;20028;-81
2024/02/27 01:32:12;;;;;;;1.85;0.30;;;8.60;99.90;;;;;;5058636;28;20017;-81
2024/02/27 01:34:38;;;;;;;0.22;0.22;;;8.60;99.90;;;;;;5063604;28;20043;-81
2024/02/27 01:37:04;;;;;;;0.40;0.28;;;8.70;99.90;;;;;;5062269;28;20035;-81
2024/02/27 01:39:30;;;;;;;0.30;0.30;;;8.70;99.90;;;;;;5059946;28;20390;-81
2024/02/27 01:41:55;;;;;;;0.40;0.20;;;8.60;99.90;;;;;;5059568;28;20499;-81
2024/02/27 01:44:21;;;;;;;1.38;0.35;;;8.50;99.90;;;;;;5061150;28;20033;-81
2024/02/27 01:46:48;;;;;;;0.20;0.20;;;8.60;99.90;;;;;;5061341;28;20052;-81
2024/02/27 01:49:14;;;;;;;0.22;0.22;;;8.70;99.90;;;;;;5069785;28;20497;-81
2024/02/27 01:51:45;;;;;;;0.30;0.30;;;8.60;99.90;;;;;;5060350;28;20382;-81
2024/02/27 01:54:13;;;;;;;0.32;0.30;;;8.60;99.90;;;;;;5062349;28;20482;-82
2024/02/27 01:56:39;;;;;;;0.40;0.40;;;8.60;99.90;;;;;;5059479;28;20390;-81
2024/02/27 01:59:08;;;;;;;0.30;0.30;;;8.40;99.90;;;;;;5061057;28;20101;-82
2024/02/27 02:01:34;;;;;;;0.20;0.20;;;8.40;99.90;;;;;;5060006;28;20025;-81
2024/02/27 02:04:02;;;;;;;0.20;0.20;;;8.40;99.90;;;;;;5058948;28;20059;-81
2024/02/27 02:06:28;;;;;;;0.20;0.20;;;8.30;99.90;;;;;;5059913;28;20025;-81
2024/02/27 02:08:57;;;;;;;0.20;0.20;;;8.30;99.90;;;;;;5061985;28;20556;-81
2024/02/27 02:11:22;;;;;;;0.20;0.20;;;8.40;99.90;;;;;;5060105;28;20108;-81
2024/02/27 02:13:48;;;;;;;0.30;0.30;;;8.50;99.90;;;;;;5060187;28;20493;-81
2024/02/27 02:16:14;;;;;;;0.20;0.20;;;8.50;99.90;;;;;;5058434;28;20589;-81
2024/02/27 02:18:39;;;;;;;0.17;0.17;;;8.70;99.90;;;;;;5061523;28;20020;-82
2024/02/27 02:21:05;;;;;;;0.52;0.40;;;8.90;99.90;;;;;;5061445;28;20513;-82
2024/02/27 02:23:32;;;;;;;0.90;0.30;;;8.80;99.90;;;;;;5059072;28;20061;-82
2024/02/27 02:25:59;;;;;;;0.30;0.30;;;8.80;99.90;;;;;;5059466;28;20029;-82
2024/02/27 02:28:26;;;;;;;0.20;0.20;;;8.90;99.90;;;;;;5060841;28;20183;-82
2024/02/27 02:30:51;;;;;;;1.08;0.20;;;9.00;99.90;;;;;;5057905;28;20021;-82
2024/02/27 02:33:17;;;;;;;0.32;0.28;;;9.00;99.90;;;;;;5064065;28;20430;-82
2024/02/27 02:35:46;;;;;;;1.23;0.28;;;8.90;99.90;;;;;;5061831;28;20296;-82
2024/02/27 02:38:12;;;;;;;0.25;0.25;;;8.90;99.90;;;;;;5062792;28;20020;-81
2024/02/27 02:40:38;;;;;;;0.75;0.30;;;8.90;99.90;;;;;;5064531;28;20059;-82
2024/02/27 02:43:04;;;;;;;1.38;0.30;;;9.00;99.90;;;;;;5061594;28;20028;-82
2024/02/27 02:45:29;;;;;;;0.52;0.32;;;9.00;99.90;;;;;;5063996;28;20048;-82
2024/02/27 02:47:57;;;;;;;0.30;0.30;;;9.10;99.90;;;;;;5062321;28;20027;-81
2024/02/27 02:50:23;;;;;;;0.13;0.13;;;9.10;99.90;;;;;;5063417;28;20451;-82
2024/02/27 02:52:48;;;;;;;0.20;0.20;;;9.00;99.90;;;;;;5063311;28;20104;-82
2024/02/27 02:55:14;;;;;;;0.20;0.20;;;9.00;99.90;;;;;;5064524;28;20020;-81
2024/02/27 02:57:40;;;;;;;0.30;0.30;;;8.90;99.90;;;;;;5062874;28;20090;-81
2024/02/27 03:00:08;;;;;;;0.15;0.15;;;8.90;99.90;;;;;;5068231;28;20046;-82
2024/02/27 03:02:33;;;;;;;0.10;0.10;;;8.80;99.90;;;;;;5063047;28;20029;-82
2024/02/27 03:04:59;;;;;;;0.10;0.10;;;8.90;99.90;;;;;;5061892;28;20032;-82
2024/02/27 03:07:25;;;;;;;0.10;0.10;;;8.90;99.90;;;;;;5064194;28;20037;-82
2024/02/27 03:09:51;;;;;;;0.20;0.20;;;8.90;99.90;;;;;;5061211;28;20425;-82
2024/02/27 03:12:21;;;;;;;0.85;0.20;;;8.90;99.90;;;;;;5063501;28;20095;-82
2024/02/27 03:14:46;;;;;;;0.20;0.20;;;9.00;99.90;;;;;;5062960;28;20024;-82
2024/02/27 03:17:16;;;;;;;0.20;0.20;;;9.00;99.90;;;;;;5064743;28;20178;-82
2024/02/27 03:19:43;;;;;;;0.50;0.30;;;9.10;99.90;;;;;;5064225;28;20028;-82
2024/02/27 03:22:09;;;;;;;0.20;0.20;;;9.10;99.90;;;;;;5061856;28;20378;-82
2024/02/27 03:24:36;;;;;;;0.22;0.20;;;9.20;99.90;;;;;;5062382;28;20390;-83
2024/02/27 03:27:02;;;;;;;1.17;0.10;;;9.20;99.90;;;;;;5063183;28;20035;-83
2024/02/27 03:29:29;;;;;;;0.13;0.13;;;9.20;99.90;;;;;;5064586;28;20034;-82
2024/02/27 03:31:54;;;;;;;0.10;0.10;;;9.20;99.90;;;;;;5062253;28;20108;-82
2024/02/27 03:34:20;;;;;;;0.20;0.20;;;9.30;99.90;;;;;;5062878;28;20455;-82
2024/02/27 03:36:46;;;;;;;0.20;0.20;;;9.30;99.90;;;;;;5063413;28;20059;-82
2024/02/27 03:39:14;;;;;;;0.20;0.20;;;9.30;99.90;;;;;;5065727;28;20032;-82
2024/02/27 03:41:40;;;;;;;0.20;0.10;;;9.40;99.90;;;;;;5064175;28;20058;-83
2024/02/27 03:44:06;;;;;;;0.22;0.22;;;9.50;99.90;;;;;;5060592;28;20272;-82
2024/02/27 03:46:31;;;;;;;0.13;0.13;;;9.50;99.90;;;;;;5063875;28;20195;-82
2024/02/27 03:48:57;;;;;;;0.20;0.20;;;9.50;99.90;;;;;;5070246;28;20033;-82
2024/02/27 03:51:23;;;;;;;0.20;0.20;;;9.50;99.90;;;;;;5062617;28;20034;-82
2024/02/27 03:53:48;;;;;;;0.20;0.20;;;9.50;99.90;;;;;;5060601;28;20048;-82
2024/02/27 03:56:14;;;;;;;0.20;0.20;;;9.50;99.90;;;;;;5063296;28;20474;-82
2024/02/27 03:58:40;;;;;;;0.10;0.10;;;9.50;99.90;;;;;;5060671;28;20033;-83
2024/02/27 04:01:05;;;;;;;0.10;0.10;;;9.50;99.90;;;;;;5062246;28;20135;-83
2024/02/27 04:03:31;;;;;;;0.40;0.30;;;9.40;99.90;;;;;;5063062;28;20074;-82
2024/02/27 04:05:57;;;;;;;0.70;0.20;;;9.40;99.90;;;;;;5062337;28;20394;-83
2024/02/27 04:08:23;;;;;;;0.20;0.20;;;9.40;99.90;;;;;;5060069;28;20384;-83
2024/02/27 04:10:48;;;;;;;0.20;0.20;;;9.30;99.90;;;;;;5093482;28;20500;-83
2024/02/27 04:13:14;;;;;;;0.10;0.10;;;9.30;99.90;;;;;;5062457;28;20027;-82
2024/02/27 04:15:40;;;;;;;0.32;0.20;;;9.30;99.90;;;;;;5061192;28;20032;-82
2024/02/27 04:18:07;;;;;;;0.10;0.10;;;9.30;99.90;;;;;;5064973;28;20043;-83
2024/02/27 04:20:33;;;;;;;0.20;0.20;;;9.20;99.90;;;;;;5060006;28;20398;-82
2024/02/27 04:22:58;;;;;;;0.10;0.10;;;9.20;99.90;;;;;;5062897;28;20029;-82
2024/02/27 04:25:24;;;;;;;0.10;0.10;;;9.10;99.90;;;;;;5061126;28;20478;-82
2024/02/27 04:27:49;;;;;;;0.10;0.10;;;9.10;99.90;;;;;;5059601;28;20422;-82
2024/02/27 04:30:15;;;;;;;0.10;0.10;;;9.10;99.90;;;;;;5061037;28;20029;-82
2024/02/27 04:32:41;;;;;;;0.10;0.10;;;9.10;99.90;;;;;;5063312;28;20025;-82
2024/02/27 04:35:07;;;;;;;0.10;0.10;;;9.10;99.90;;;;;;5060647;28;20055;-82
2024/02/27 04:37:33;;;;;;;0.73;0.25;;;9.20;99.90;;;;;;5060790;28;20502;-82
2024/02/27 04:39:58;;;;;;;0.13;0.13;;;9.20;99.90;;;;;;5063060;28;20028;-82
2024/02/27 04:42:24;;;;;;;0.22;0.20;;;9.20;99.90;;;;;;5058790;28;20032;-82
2024/02/27 04:44:50;;;;;;;0.20;0.20;;;9.30;99.90;;;;;;5062704;28;20550;-82
2024/02/27 04:47:16;;;;;;;0.17;0.17;;;9.30;99.90;;;;;;5056204;28;20045;-82
2024/02/27 04:49:42;;;;;;;0.10;0.10;;;9.30;99.90;;;;;;5060831;28;20043;-82
2024/02/27 04:52:07;;;;;;;0.20;0.20;;;9.40;99.90;;;;;;5060186;28;20050;-81
2024/02/27 04:54:35;;;;;;;0.20;0.20;;;9.50;99.90;;;;;;5061140;28;20047;-82
2024/02/27 04:57:01;;;;;;;0.20;0.20;;;9.50;99.90;;;;;;5060669;28;20471;-82
2024/02/27 04:59:26;;;;;;;0.20;0.20;;;9.50;99.90;;;;;;5067329;28;20032;-81
2024/02/27 05:01:52;;;;;;;0.13;0.13;;;9.60;99.90;;;;;;5058943;28;20272;-81
2024/02/27 05:04:18;;;;;;;0.20;0.20;;;9.60;99.90;;;;;;5061971;28;20036;-81
2024/02/27 05:06:43;;;;;;;0.22;0.22;;;9.70;99.90;;;;;;5058149;28;20251;-82
2024/02/27 05:09:09;;;;;;;0.20;0.20;;;10.00;99.90;;;;;;5058092;28;20387;-81
2024/02/27 05:11:35;;;;;;;1.13;0.13;;;10.10;99.90;;;;;;5061107;28;20024;-82
2024/02/27 05:14:01;;;;;;;0.13;0.13;;;10.10;99.90;;;;;;5060348;28;20025;-81
2024/02/27 05:16:26;;;;;;;0.20;0.20;;;10.30;99.20;;;;;;5061940;28;20381;-81
2024/02/27 05:18:52;;;;;;;0.10;0.10;;;10.30;99.90;;;;;;5064320;28;20028;-82
2024/02/27 05:21:18;;;;;;;0.20;0.20;;;10.20;99.90;;;;;;5060720;28;20031;-82
2024/02/27 05:23:45;;;;;;;0.20;0.20;;;10.10;99.90;;;;;;5058032;28;20036;-82
2024/02/27 05:26:11;;;;;;;1.10;0.20;;;10.10;99.90;;;;;;5061213;28;20151;-82
2024/02/27 05:28:37;;;;;;;0.38;0.20;;;10.00;99.90;;;;;;5058545;28;20128;-82
2024/02/27 05:31:25;;;;;;;0.10;0.10;;;9.90;99.90;;;;;;5061424;28;20144;-82
2024/02/27 05:33:55;;;;;;;0.28;0.28;;;9.90;99.90;;;;;;5061746;28;20021;-82
2024/02/27 05:36:25;;;;;;;0.20;0.20;;;10.10;99.90;;;;;;5061355;28;20247;-83
2024/02/27 05:38:51;;;;;;;0.20;0.20;;;9.90;99.90;;;;;;5058910;28;20075;-82
2024/02/27 05:41:17;;;;;;;0.20;0.20;;;9.80;99.90;;;;;;5061762;28;20432;-83
2024/02/27 05:43:43;;;;;;;0.93;0.20;;;9.80;99.90;;;;;;5058796;28;20115;-83
2024/02/27 05:46:09;;;;;;;0.43;0.20;;;9.80;99.90;;;;;;5060184;28;20394;-83
2024/02/27 05:48:39;;;;;;;0.20;0.20;;;9.70;99.90;;;;;;5060923;28;20044;-84
2024/02/27 05:51:09;;;;;;;0.10;0.10;;;9.80;99.90;;;;;;5058290;28;20037;-84
2024/02/27 05:53:35;;;;;;;0.30;0.30;;;9.70;99.90;;;;;;5064495;28;20021;-83
2024/02/27 05:56:02;;;;;;;0.20;0.20;;;9.70;99.90;;;;;;5060117;28;20032;-83
2024/02/27 05:58:28;;;;;;;0.43;0.32;;;9.80;99.90;;;;;;5057721;28;20033;-83
2024/02/27 06:00:55;;;;;;;0.57;0.20;;;9.70;99.90;;;;;;5062659;28;20024;-83
2024/02/27 06:03:22;;;;;;;1.08;0.20;;;9.70;99.90;;;;;;5057907;28;20035;-84
2024/02/27 06:05:48;;;;;;;0.20;0.20;;;9.90;99.90;;;;;;5066378;28;20056;-83
2024/02/27 06:08:14;;;;;;;0.28;0.28;;;9.80;99.90;;;;;;5067058;28;20367;-84
2024/02/27 06:10:41;;;;;;;3.70;0.20;;;9.80;99.90;;;;;;5073062;28;20691;-84
2024/02/27 06:13:07;;;;;;;1.45;0.30;;;9.80;99.90;;;;;;5067283;28;20150;-84
2024/02/27 06:15:32;;;;;;;0.20;0.20;;;9.90;99.90;;;;;;5067873;28;20029;-84
2024/02/27 06:17:58;;;;;;;0.20;0.20;;;9.90;99.90;;;;;;5069978;28;20031;-84
2024/02/27 06:23:08;;;;;;;0.20;0.20;;;10.20;99.90;;;;;;5072029;28;20386;-84
2024/02/27 06:25:33;;;;;;;0.20;0.20;;;10.20;99.90;;;;;;5063770;28;20020;-83
2024/02/27 06:27:59;;;;;;;0.20;0.20;;;10.30;99.90;;;;;;5064057;28;20021;-83
2024/02/27 06:30:25;;;;;;;0.30;0.20;;;10.40;99.90;;;;;;5062395;28;20495;-84
2024/02/27 06:32:52;;;;;;;0.10;0.10;;;10.30;99.90;;;;;;5065163;28;20051;-83
2024/02/27 06:35:17;;;;;;;0.30;0.30;;;10.40;99.90;;;;;;5061889;28;20028;-83
2024/02/27 06:37:43;;;;;;;0.25;0.20;;;10.40;99.90;;;;;;5064018;28;20025;-84
2024/02/27 06:40:09;;;;;;;0.20;0.20;;;10.40;99.90;;;;;;5063340;28;20087;-84
2024/02/27 06:42:36;;;;;;;0.30;0.30;;;10.50;99.90;;;;;;5062409;28;20025;-83
2024/02/27 06:45:06;;;;;;;0.20;0.20;;;10.50;99.90;;;;;;5063250;28;20120;-84
2024/02/27 06:47:31;;;;;;;2.85;0.45;;;10.50;99.90;;;;;;5064410;28;20507;-84
2024/02/27 06:49:58;;;;;;;0.40;0.40;;;10.50;99.90;;;;;;5063472;28;20048;-84
2024/02/27 06:52:25;;;;;;;0.20;0.20;;;10.60;99.90;;;;;;5063208;28;20390;-84
2024/02/27 06:54:52;;;;;;;0.30;0.30;;;10.60;99.90;;;;;;5061562;28;20025;-85
2024/02/27 06:57:17;;;;;;;2.15;0.20;;;10.60;99.90;;;;;;5061993;28;20159;-84
2024/02/27 06:59:46;;;;;;;3.10;0.30;;;10.70;99.90;;;;;;5062032;28;20067;-84
2024/02/27 07:02:12;;;;;;;0.20;0.20;;;10.60;99.90;;;;;;5063458;28;20113;-84
2024/02/27 07:04:38;;;;;;;1.27;0.80;;;10.70;99.90;;;;;;5062843;28;20456;-84
2024/02/27 07:07:04;;;;;;;0.47;0.47;;;10.60;99.90;;;;;;5060919;28;20442;-84
2024/02/27 07:09:31;;;;;;;0.20;0.20;;;10.60;99.90;;;;;;5062556;28;20021;-84
2024/02/27 07:12:00;;;;;;;0.20;0.20;;;10.60;99.90;;;;;;5065061;28;20038;-84
2024/02/27 07:14:27;;;;;;;1.55;0.30;;;10.60;99.90;;;;;;5062257;28;20103;-84
2024/02/27 07:16:56;;;;;;;0.28;0.28;;;10.60;99.90;;;;;;5064105;28;20099;-84
2024/02/27 07:19:22;;;;;;;0.55;0.40;;;10.70;99.90;;;;;;5080290;28;20040;-84
2024/02/27 07:21:51;;;;;;;1.52;0.40;;;10.60;99.90;;;;;;5064875;28;20391;-84
2024/02/27 07:24:17;;;;;;;0.20;0.20;;;10.70;99.90;;;;;;5062100;28;20032;-85
2024/02/27 07:26:43;;;;;;;0.40;0.35;;;10.70;99.90;;;;;;5063315;28;20033;-84
2024/02/27 07:29:09;;;;;;;0.30;0.30;;;10.70;99.90;;;;;;5060645;28;20032;-85
2024/02/27 07:31:35;;;;;;;0.25;0.20;;;10.70;99.90;;;;;;5061041;28;20124;-84
2024/02/27 07:34:03;;;;;;;1.33;0.65;;;10.70;99.90;;;;;;5062899;28;20025;-84
2024/02/27 07:36:29;;;;;;;0.55;0.55;;;10.70;99.90;;;;;;5060007;28;20032;-84
2024/02/27 07:38:55;;;;;;;0.30;0.30;;;10.70;99.90;;;;;;5063488;28;20030;-84
2024/02/27 07:41:20;;;;;;;0.20;0.20;;;10.70;99.90;;;;;;5060299;28;20106;-84
2024/02/27 07:43:46;;;;;;;0.10;0.10;;;10.70;99.90;;;;;;5060860;28;20048;-84
2024/02/27 07:46:15;;;;;;;0.10;0.10;;;10.70;99.90;;;;;;5059802;28;20052;-84
2024/02/27 07:48:45;;;;;;;0.20;0.20;;;10.70;99.90;;;;;;5062262;28;20024;-85
2024/02/27 07:51:30;;;;;;;0.85;0.75;;;10.70;99.90;;;;;;5063787;28;20029;-84
2024/02/27 07:53:56;;;;;;;0.30;0.30;;;10.60;99.90;;;;;;5063573;28;20040;-84
2024/02/27 07:56:22;;;;;;;1.50;1.40;;;10.60;99.90;;;;;;5063520;28;20033;-84
2024/02/27 07:58:48;;;;;;;0.73;0.60;;;10.50;99.90;;;;;;5061977;28;20524;-84
2024/02/27 08:01:13;;;;;;;1.05;0.95;;;10.50;99.90;;;;;;5062241;28;20051;-84
2024/02/27 08:03:39;;;;;;;0.38;0.30;;;10.40;99.90;;;;;;5066945;28;20028;-84
2024/02/27 08:06:08;;;;;;;0.90;0.90;;;10.20;99.90;;;;;;5059953;28;20037;-84
2024/02/27 08:08:34;;;;;;;0.70;0.70;;;10.20;99.90;;;;;;5059984;28;20075;-84
2024/02/27 15:25:57;;;;;;;0.80;0.80;;;10.00;99.90;;;;;;5189973;23;20495;-86
2024/02/27 15:28:22;;;;;;;1.77;1.77;;;10.00;99.90;;;;;;4978564;28;20023;-86
2024/02/27 15:30:49;;;;;;;1.45;1.38;;;10.00;99.90;;;;;;4980796;28;20038;-85
2024/02/27 15:33:15;;;;;;;0.63;0.63;;;10.00;99.90;;;;;;4978734;28;20023;-85
2024/02/27 15:35:40;;;;;;;0.63;0.63;;;9.90;99.90;;;;;;4977488;28;20019;-85
2024/02/27 15:38:06;;;;;;;0.80;0.80;;;10.00;99.90;;;;;;4979209;28;20038;-85
2024/02/27 15:40:32;;;;;;;1.15;1.05;;;10.00;99.90;;;;;;4978457;28;20026;-84
2024/02/27 15:43:00;;;;;;;1.85;0.60;;;10.00;99.90;;;;;;4980662;28;20033;-86
2024/02/27 15:45:25;;;;;;;0.45;0.45;;;10.00;99.90;;;;;;4978548;28;20388;-85
2024/02/27 15:47:52;;;;;;;0.80;0.80;;;9.90;99.90;;;;;;4981770;28;20027;-86
2024/02/27 15:50:18;;;;;;;0.70;0.45;;;9.90;99.90;;;;;;4980083;28;20018;-86
2024/02/27 15:52:44;;;;;;;1.00;0.43;;;9.90;99.90;;;;;;4980200;28;20077;-85
2024/02/27 15:55:09;;;;;;;0.70;0.70;;;9.90;99.90;;;;;;4977793;28;20023;-86
2024/02/27 15:57:35;;;;;;;0.40;0.40;;;9.90;99.90;;;;;;4982002;28;20035;-86
2024/02/27 16:00:07;;;;;;;0.70;0.70;;;9.80;99.90;;;;;;4981492;28;20030;-85
2024/02/27 16:02:35;;;;;;;1.10;1.00;;;9.80;99.90;;;;;;4981589;28;20019;-87
2024/02/27 16:05:02;;;;;;;0.90;0.80;;;9.90;99.90;;;;;;4977181;28;20043;-88
2024/02/27 16:07:43;;;;;;;0.40;0.40;;;9.80;99.90;;;;;;4977301;28;20026;-88
2024/02/27 16:10:09;;;;;;;0.50;0.50;;;9.90;99.90;;;;;;4978702;28;20026;-87
2024/02/27 16:12:34;;;;;;;0.75;0.50;;;9.90;99.90;;;;;;4981353;28;20076;-87
2024/02/27 16:15:00;;;;;;;0.70;0.70;;;10.00;99.90;;;;;;4980644;28;20113;-87
2024/02/27 16:17:26;;;;;;;1.52;1.08;;;10.00;99.90;;;;;;4983892;28;20431;-87
2024/02/27 16:19:52;;;;;;;1.40;1.17;;;9.90;99.90;;;;;;4988348;28;20027;-88
2024/02/27 16:22:20;;;;;;;2.22;2.08;;;9.90;99.90;;;;;;4978790;28;20162;-88
2024/02/27 16:24:46;;;;;;;1.88;1.77;;;9.90;99.90;;;;;;4982088;28;20034;-88
2024/02/27 16:27:12;;;;;;;2.10;2.00;;;9.90;99.90;;;;;;4977871;28;20304;-88
2024/02/27 16:29:37;;;;;;;1.60;1.50;;;9.90;99.90;;;;;;4978581;28;20030;-87
2024/02/27 16:32:03;;;;;;;1.45;1.25;;;9.90;99.90;;;;;;4980979;28;20031;-88
2024/02/27 16:34:29;;;;;;;0.95;0.95;;;9.90;99.90;;;;;;4977301;28;20019;-88
2024/02/27 16:36:59;;;;;;;1.20;1.20;;;9.90;99.90;;;;;;4980512;28;20036;-87
2024/02/27 16:39:27;;;;;;;0.77;0.77;;;9.90;99.90;;;;;;4978315;28;20062;-88
2024/02/27 16:41:52;;;;;;;0.60;0.60;;;9.80;99.90;;;;;;4978161;28;20457;-88
2024/02/27 16:44:18;;;;;;;1.17;0.70;;;9.80;99.90;;;;;;4979474;28;20105;-88
2024/02/27 16:46:44;;;;;;;0.93;0.93;;;9.80;99.90;;;;;;4984710;28;20668;-87
2024/02/27 16:49:09;;;;;;;0.63;0.63;;;9.70;99.90;;;;;;4983470;28;20030;-88
2024/02/27 16:51:35;;;;;;;1.67;0.80;;;9.70;99.90;;;;;;4978149;28;20110;-88
2024/02/27 16:54:01;;;;;;;1.10;1.00;;;9.70;99.90;;;;;;4978479;28;20030;-88
2024/02/27 16:56:26;;;;;;;2.72;0.75;;;9.60;99.90;;;;;;4987110;28;20027;-86
2024/02/27 16:58:52;;;;;;;0.65;0.60;;;9.70;99.90;;;;;;4977446;28;20078;-87
2024/02/27 17:01:18;;;;;;;0.60;0.60;;;9.60;99.90;;;;;;4987372;28;20022;-87
2024/02/27 17:03:44;;;;;;;2.38;2.22;;;9.60;99.90;;;;;;4980293;28;20048;-88
2024/02/27 17:06:10;;;;;;;1.00;1.00;;;9.60;99.90;;;;;;4977278;28;20451;-88
2024/02/27 17:08:35;;;;;;;0.80;0.80;;;9.60;99.90;;;;;;4975127;28;20491;-89
2024/02/27 17:11:01;;;;;;;1.65;1.50;;;9.60;99.90;;;;;;4979406;28;20125;-88
2024/02/27 17:13:27;;;;;;;6.63;4.93;;;9.70;99.90;;;;;;4976364;28;20469;-86
2024/02/27 17:15:53;;;;;;;1.13;1.02;;;9.60;99.90;;;;;;4976032;28;20019;-85
2024/02/27 17:18:22;;;;;;;2.50;2.30;;;9.60;99.90;;;;;;4982414;28;20093;-85
2024/02/27 17:20:49;;;;;;;1.92;1.83;;;9.60;99.90;;;;;;4977138;28;20030;-85
2024/02/27 17:23:16;;;;;;;1.80;1.70;;;9.60;99.90;;;;;;4976955;28;20377;-87
2024/02/27 17:25:43;;;;;;;2.90;2.70;;;9.60;99.90;;;;;;4979040;28;20061;-87
2024/02/27 17:28:09;;;;;;;1.90;1.80;;;9.70;99.90;;;;;;4975196;28;20034;-88
2024/02/27 17:30:36;;;;;;;2.42;2.22;;;9.70;99.90;;;;;;4977047;28;20384;-88
2024/02/27 17:33:02;;;;;;;1.60;1.50;;;9.60;99.90;;;;;;4979609;28;20019;-88
2024/02/27 17:35:28;;;;;;;1.48;1.38;;;9.60;99.90;;;;;;4978314;28;20503;-89
2024/02/27 17:37:53;;;;;;;0.68;0.68;;;9.60;99.90;;;;;;4979187;28;20049;-87
2024/02/27 17:40:19;;;;;;;0.88;0.80;;;9.70;99.90;;;;;;4972653;28;20022;-86
2024/02/27 17:42:44;;;;;;;1.45;1.35;;;9.70;99.90;;;;;;4976640;28;20436;-87
2024/02/27 17:45:10;;;;;;;1.70;1.60;;;9.70;99.90;;;;;;4975320;28;20023;-86
2024/02/27 17:47:36;;;;;;;1.02;1.02;;;9.70;99.90;;;;;;4974452;28;20055;-87
2024/02/27 17:50:02;;;;;;;3.10;2.85;;;9.70;99.90;;;;;;4975921;28;20416;-87
2024/02/27 17:52:29;;;;;;;1.20;1.10;;;9.70;99.90;;;;;;4983294;28;20023;-88
2024/02/27 17:54:56;;;;;;;0.80;0.80;;;9.70;99.90;;;;;;4981692;28;20034;-88
2024/02/27 17:57:21;;;;;;;0.80;0.80;;;9.70;99.90;;;;;;4977148;28;20034;-87
2024/02/27 17:59:48;;;;;;;0.85;0.85;;;9.70;99.90;;;;;;4978402;28;20126;-87
2024/02/27 18:02:14;;;;;;;1.48;0.95;;;9.80;99.90;;;;;;4980302;28;20116;-87
2024/02/27 18:04:41;;;;;;;0.82;0.82;;;9.80;99.90;;;;;;4976990;28;20027;-88
2024/02/27 18:07:07;;;;;;;1.98;0.90;;;9.80;99.90;;;;;;4987538;28;20018;-88
2024/02/27 18:09:33;;;;;;;1.33;1.23;;;9.90;99.90;;;;;;4985507;28;20022;-88
2024/02/27 18:11:59;;;;;;;0.60;0.60;;;9.90;99.90;;;;;;4979007;28;20065;-87
2024/02/27 18:14:24;;;;;;;0.85;0.85;;;10.00;99.90;;;;;;4996656;28;20031;-87
2024/02/27 18:16:50;;;;;;;1.70;1.00;;;10.10;99.90;;;;;;4986645;28;20486;-86
2024/02/27 18:19:19;;;;;;;0.82;0.80;;;10.00;99.90;;;;;;4984927;28;20022;-86
2024/02/27 18:21:45;;;;;;;0.50;0.50;;;10.00;99.90;;;;;;4982811;28;20031;-87
2024/02/27 18:24:11;;;;;;;0.60;0.50;;;10.00;99.90;;;;;;4981403;28;20031;-86
2024/02/27 18:26:37;;;;;;;0.40;0.40;;;10.10;99.90;;;;;;4984368;28;20046;-86
2024/02/27 18:29:03;;;;;;;0.40;0.40;;;10.20;99.90;;;;;;4980128;28;20027;-87
2024/02/27 18:31:29;;;;;;;0.50;0.50;;;10.30;99.90;;;;;;4985761;28;20030;-87
2024/02/27 18:33:54;;;;;;;0.77;0.77;;;10.40;99.90;;;;;;4978909;28;20030;-87
2024/02/27 18:36:20;;;;;;;0.90;0.90;;;10.40;99.90;;;;;;4977522;28;20034;-87
2024/02/27 18:38:46;;;;;;;0.68;0.68;;;10.50;99.90;;;;;;4981520;28;20050;-87
2024/02/27 18:41:12;;;;;;;0.88;0.88;;;10.60;99.90;;;;;;4984538;28;20059;-87
2024/02/27 18:43:37;;;;;;;0.77;0.77;;;10.60;99.90;;;;;;4985241;28;20030;-81
2024/02/27 18:46:04;;;;;;;2.22;0.40;;;10.60;99.90;;;;;;4986856;28;20121;-81
2024/02/27 18:48:30;;;;;;;0.77;0.77;;;10.60;99.90;;;;;;4986294;28;21047;-81
2024/02/27 18:50:58;;;;;;;0.70;0.70;;;10.50;99.90;;;;;;4983418;28;20034;-81
2024/02/27 18:53:24;;;;;;;1.92;1.83;;;10.50;99.90;;;;;;4985686;28;20065;-80
2024/02/27 18:55:52;;;;;;;3.65;3.25;;;10.50;99.90;;;;;;4985166;28;20023;-80
2024/02/27 18:58:18;;;;;;;1.30;1.20;;;10.60;99.90;;;;;;4985550;28;20032;-80
2024/02/27 19:00:44;;;;;;;1.10;1.10;;;10.60;99.90;;;;;;4991562;28;20030;-80
2024/02/27 19:03:10;;;;;;;1.20;1.20;;;10.50;99.90;;;;;;4993866;28;20026;-81
2024/02/27 19:05:35;;;;;;;1.73;1.20;;;10.50;99.90;;;;;;4993732;28;20027;-81
2024/02/27 19:08:01;;;;;;;1.25;1.25;;;10.50;99.90;;;;;;4992170;28;20037;-81
2024/02/27 19:10:27;;;;;;;1.92;1.60;;;10.50;99.90;;;;;;4988498;28;20057;-80
2024/02/27 19:12:53;;;;;;;1.33;1.33;;;10.40;99.90;;;;;;4979223;28;20516;-81
2024/02/27 19:15:19;;;;;;;0.80;0.80;;;10.40;99.90;;;;;;4980304;28;20031;-81
2024/02/27 19:17:45;;;;;;;0.95;0.95;;;10.40;99.90;;;;;;4981145;28;20114;-81
2024/02/27 19:20:13;;;;;;;2.08;1.05;;;10.40;99.90;;;;;;4977440;28;20126;-81
2024/02/27 19:22:39;;;;;;;0.90;0.90;;;10.40;99.90;;;;;;4980307;28;20027;-81
2024/02/27 19:25:08;;;;;;;0.95;0.77;;;10.40;99.90;;;;;;4979053;28;20085;-81
2024/02/27 19:27:34;;;;;;;1.65;0.90;;;10.30;99.90;;;;;;4977699;28;20130;-81
2024/02/27 19:30:00;;;;;;;0.82;0.82;;;10.30;99.90;;;;;;4981237;28;20029;-81
2024/02/27 19:32:27;;;;;;;1.20;1.10;;;10.40;99.90;;;;;;4981518;28;20030;-81
2024/02/27 19:34:53;;;;;;;0.90;0.90;;;10.40;99.90;;;;;;4979819;28;20014;-82
2024/02/27 19:37:18;;;;;;;0.90;0.90;;;10.40;99.90;;;;;;4981267;28;20022;-81
2024/02/27 19:39:45;;;;;;;0.88;0.88;;;10.50;99.90;;;;;;4977594;28;20026;-81
2024/02/27 19:42:11;;;;;;;1.73;1.63;;;10.50;99.90;;;;;;4980673;28;20476;-82
2024/02/27 19:44:37;;;;;;;1.17;0.85;;;10.40;99.90;;;;;;4978820;28;20038;-82
2024/02/27 19:47:03;;;;;;;0.50;0.50;;;10.40;99.90;;;;;;4975492;28;20049;-82
2024/02/27 19:49:28;;;;;;;0.70;0.70;;;10.30;99.90;;;;;;4976379;28;20549;-81
2024/02/27 19:51:55;;;;;;;1.63;1.52;;;10.30;99.90;;;;;;4984774;28;20496;-82
2024/02/27 19:54:24;;;;;;;1.15;1.00;;;10.20;99.90;;;;;;4982575;28;20023;-81
2024/02/27 19:56:50;;;;;;;1.58;1.48;;;10.30;99.90;;;;;;4977398;28;20480;-82
2024/02/27 19:59:16;;;;;;;1.75;0.98;;;10.20;99.90;;;;;;4980162;28;20037;-82
2024/02/27 20:01:43;;;;;;;1.35;1.25;;;10.20;99.90;;;;;;4977834;28;20553;-82
2024/02/27 20:04:10;;;;;;;2.67;1.92;;;10.20;99.90;;;;;;4977393;28;20385;-82
2024/02/27 20:06:36;;;;;;;1.13;1.02;;;10.20;99.90;;;;;;4977079;28;20057;-82